Time;durP1;ratioP1;P1;durP2;ratioP2;P2;SDS_P1;SDS_P2;PMS_P1;PMS_P2;Temp;Humidity;BMP_temperature;BMP_pressure;BME280_temperature;BME280_humidity;BME280_pressure;Samples;Min_cycle;Max_cycle;Signal;HPM_P1;HPM_P2
2019/07/23 00:00:37;;;;;;;7.450001;5.95;;;;;;;17.59;73.97656;95900.8;;;;
2019/07/23 00:01:40;;;;;;;7.450001;5.95;;;;;;;17.59;73.97656;95900.8;;;;
2019/07/23 00:02:41;;;;;;;7.450001;5.95;;;;;;;17.59;73.97656;95900.8;;;;
2019/07/23 00:03:43;;;;;;;7.450001;5.95;;;;;;;17.59;73.97656;95900.8;;;;
2019/07/23 00:04:44;;;;;;;6.55;5.95;;;;;;;17.5;74.6582;95901.42;;;;
2019/07/23 00:05:45;;;;;;;6.55;5.95;;;;;;;17.5;74.6582;95901.42;;;;
2019/07/23 00:06:46;;;;;;;6.55;5.95;;;;;;;17.5;74.6582;95901.42;;;;
2019/07/23 00:07:47;;;;;;;6.55;5.95;;;;;;;17.5;74.6582;95901.42;;;;
2019/07/23 00:08:48;;;;;;;6.55;5.95;;;;;;;17.5;74.6582;95901.42;;;;
2019/07/23 00:09:49;;;;;;;6.55;5.95;;;;;;;17.5;74.6582;95901.42;;;;
2019/07/23 00:10:50;;;;;;;6.55;5.95;;;;;;;17.5;74.6582;95901.42;;;;
2019/07/23 00:11:52;;;;;;;6.55;5.95;;;;;;;17.5;74.6582;95901.42;;;;
2019/07/23 00:12:53;;;;;;;6.55;5.95;;;;;;;17.5;74.6582;95901.42;;;;
2019/07/23 00:13:54;;;;;;;6.55;5.95;;;;;;;17.5;74.6582;95901.42;;;;
2019/07/23 00:14:55;;;;;;;7.1;6.25;;;;;;;17.35;75.23047;95903.6;;;;
2019/07/23 00:15:56;;;;;;;7.1;6.25;;;;;;;17.35;75.23047;95903.6;;;;
2019/07/23 00:16:57;;;;;;;7.1;6.25;;;;;;;17.35;75.23047;95903.6;;;;
2019/07/23 00:17:59;;;;;;;7.1;6.25;;;;;;;17.35;75.23047;95903.6;;;;
2019/07/23 00:19:00;;;;;;;7.1;6.25;;;;;;;17.35;75.23047;95903.6;;;;
2019/07/23 00:20:01;;;;;;;7.1;6.25;;;;;;;17.35;75.23047;95903.6;;;;
2019/07/23 00:21:05;;;;;;;7.1;6.25;;;;;;;17.35;75.23047;95903.6;;;;
2019/07/23 00:22:06;;;;;;;7.1;6.25;;;;;;;17.35;75.23047;95903.6;;;;
2019/07/23 00:23:07;;;;;;;7.1;6.25;;;;;;;17.35;75.23047;95903.6;;;;
2019/07/23 00:24:08;;;;;;;7.1;6.25;;;;;;;17.35;75.23047;95903.6;;;;
2019/07/23 00:25:10;;;;;;;7.1;6.25;;;;;;;17.35;75.23047;95903.6;;;;
2019/07/23 00:26:11;;;;;;;6.65;5.9;;;;;;;17.29;75.95801;95894.7;;;;
2019/07/23 00:27:12;;;;;;;6.65;5.9;;;;;;;17.29;75.95801;95894.7;;;;
2019/07/23 00:28:13;;;;;;;6.65;5.9;;;;;;;17.29;75.95801;95894.7;;;;
2019/07/23 00:29:14;;;;;;;6.65;5.9;;;;;;;17.29;75.95801;95894.7;;;;
2019/07/23 00:30:15;;;;;;;6.65;5.9;;;;;;;17.29;75.95801;95894.7;;;;
2019/07/23 00:31:17;;;;;;;6.65;5.9;;;;;;;17.29;75.95801;95894.7;;;;
2019/07/23 00:32:18;;;;;;;6.65;5.9;;;;;;;17.29;75.95801;95894.7;;;;
2019/07/23 00:33:19;;;;;;;6.65;5.9;;;;;;;17.29;75.95801;95894.7;;;;
2019/07/23 00:34:20;;;;;;;6.65;5.9;;;;;;;17.29;75.95801;95894.7;;;;
2019/07/23 00:35:22;;;;;;;6.65;5.9;;;;;;;17.29;75.95801;95894.7;;;;
2019/07/23 00:36:23;;;;;;;6.699999;6.100001;;;;;;;17.21;76.39063;95894.64;;;;
2019/07/23 00:37:24;;;;;;;6.699999;6.100001;;;;;;;17.21;76.39063;95894.64;;;;
2019/07/23 00:38:25;;;;;;;6.699999;6.100001;;;;;;;17.21;76.39063;95894.64;;;;
2019/07/23 00:39:26;;;;;;;6.699999;6.100001;;;;;;;17.21;76.39063;95894.64;;;;
2019/07/23 00:40:27;;;;;;;6.699999;6.100001;;;;;;;17.21;76.39063;95894.64;;;;
2019/07/23 00:41:28;;;;;;;6.699999;6.100001;;;;;;;17.21;76.39063;95894.64;;;;
2019/07/23 00:42:30;;;;;;;6.699999;6.100001;;;;;;;17.21;76.39063;95894.64;;;;
2019/07/23 00:43:31;;;;;;;6.699999;6.100001;;;;;;;17.21;76.39063;95894.64;;;;
2019/07/23 00:44:32;;;;;;;6.699999;6.100001;;;;;;;17.21;76.39063;95894.64;;;;
2019/07/23 00:45:33;;;;;;;6.699999;6.100001;;;;;;;17.21;76.39063;95894.64;;;;
2019/07/23 00:46:34;;;;;;;6.699999;6.100001;;;;;;;17.21;76.39063;95894.64;;;;
2019/07/23 00:47:35;;;;;;;6.85;6.199999;;;;;;;17.2;76.78027;95892.99;;;;
2019/07/23 00:48:36;;;;;;;6.85;6.199999;;;;;;;17.2;76.78027;95892.99;;;;
2019/07/23 00:49:37;;;;;;;6.85;6.199999;;;;;;;17.2;76.78027;95892.99;;;;
2019/07/23 00:50:38;;;;;;;6.85;6.199999;;;;;;;17.2;76.78027;95892.99;;;;
2019/07/23 00:51:40;;;;;;;6.85;6.199999;;;;;;;17.2;76.78027;95892.99;;;;
2019/07/23 00:52:41;;;;;;;6.85;6.199999;;;;;;;17.2;76.78027;95892.99;;;;
2019/07/23 00:53:42;;;;;;;6.85;6.199999;;;;;;;17.2;76.78027;95892.99;;;;
2019/07/23 00:54:43;;;;;;;6.85;6.199999;;;;;;;17.2;76.78027;95892.99;;;;
2019/07/23 00:55:44;;;;;;;6.85;6.199999;;;;;;;17.2;76.78027;95892.99;;;;
2019/07/23 00:56:45;;;;;;;6.85;6.199999;;;;;;;17.2;76.78027;95892.99;;;;
2019/07/23 00:57:46;;;;;;;7.6;6.4;;;;;;;17.09;77.22754;95898.08;;;;
2019/07/23 00:58:47;;;;;;;7.6;6.4;;;;;;;17.09;77.22754;95898.08;;;;
2019/07/23 00:59:48;;;;;;;7.6;6.4;;;;;;;17.09;77.22754;95898.08;;;;
2019/07/23 01:05:58;;;;;;;7.6;6.4;;;;;;;17.09;77.22754;95898.08;;;;
2019/07/23 01:06:59;;;;;;;7.6;6.4;;;;;;;17.09;77.22754;95898.08;;;;
2019/07/23 01:08:00;;;;;;;7.050002;6.4;;;;;;;17.02;77.80176;95881.11;;;;
2019/07/23 01:09:03;;;;;;;7.050002;6.4;;;;;;;17.02;77.80176;95881.11;;;;
2019/07/23 01:10:05;;;;;;;7.050002;6.4;;;;;;;17.02;77.80176;95881.11;;;;
2019/07/23 01:11:06;;;;;;;7.050002;6.4;;;;;;;17.02;77.80176;95881.11;;;;
2019/07/23 01:12:08;;;;;;;7.050002;6.4;;;;;;;17.02;77.80176;95881.11;;;;
2019/07/23 01:13:09;;;;;;;7.050002;6.4;;;;;;;17.02;77.80176;95881.11;;;;
2019/07/23 01:14:10;;;;;;;7.050002;6.4;;;;;;;17.02;77.80176;95881.11;;;;
2019/07/23 01:15:11;;;;;;;7.050002;6.4;;;;;;;17.02;77.80176;95881.11;;;;
2019/07/23 01:16:13;;;;;;;7.050002;6.4;;;;;;;17.02;77.80176;95881.11;;;;
2019/07/23 01:17:14;;;;;;;7.050002;6.4;;;;;;;17.02;77.80176;95881.11;;;;
2019/07/23 01:18:15;;;;;;;7.050002;6.4;;;;;;;17.02;77.80176;95881.11;;;;
2019/07/23 01:19:17;;;;;;;7.85;7.05;;;;;;;16.86;78.30469;95877.56;;;;
2019/07/23 01:20:18;;;;;;;7.85;7.05;;;;;;;16.86;78.30469;95877.56;;;;
2019/07/23 01:21:20;;;;;;;7.85;7.05;;;;;;;16.86;78.30469;95877.56;;;;
2019/07/23 01:22:21;;;;;;;7.85;7.05;;;;;;;16.86;78.30469;95877.56;;;;
2019/07/23 01:23:23;;;;;;;7.85;7.05;;;;;;;16.86;78.30469;95877.56;;;;
2019/07/23 01:24:24;;;;;;;7.85;7.05;;;;;;;16.86;78.30469;95877.56;;;;
2019/07/23 01:25:25;;;;;;;7.85;7.05;;;;;;;16.86;78.30469;95877.56;;;;
2019/07/23 01:26:26;;;;;;;7.85;7.05;;;;;;;16.86;78.30469;95877.56;;;;
2019/07/23 01:27:28;;;;;;;7.85;7.05;;;;;;;16.86;78.30469;95877.56;;;;
2019/07/23 01:28:29;;;;;;;7.85;7.05;;;;;;;16.86;78.30469;95877.56;;;;
2019/07/23 01:29:30;;;;;;;7.699999;6.9;;;;;;;16.77;78.94922;95872.19;;;;
2019/07/23 01:30:31;;;;;;;7.699999;6.9;;;;;;;16.77;78.94922;95872.19;;;;
2019/07/23 01:31:33;;;;;;;7.699999;6.9;;;;;;;16.77;78.94922;95872.19;;;;
2019/07/23 01:32:34;;;;;;;7.699999;6.9;;;;;;;16.77;78.94922;95872.19;;;;
2019/07/23 01:33:35;;;;;;;7.699999;6.9;;;;;;;16.77;78.94922;95872.19;;;;
2019/07/23 01:34:37;;;;;;;7.699999;6.9;;;;;;;16.77;78.94922;95872.19;;;;
2019/07/23 01:35:38;;;;;;;7.699999;6.9;;;;;;;16.77;78.94922;95872.19;;;;
2019/07/23 01:36:40;;;;;;;7.699999;6.9;;;;;;;16.77;78.94922;95872.19;;;;
2019/07/23 01:37:41;;;;;;;7.699999;6.9;;;;;;;16.77;78.94922;95872.19;;;;
2019/07/23 01:38:42;;;;;;;7.699999;6.9;;;;;;;16.77;78.94922;95872.19;;;;
2019/07/23 01:39:44;;;;;;;7.699999;6.9;;;;;;;16.77;78.94922;95872.19;;;;
2019/07/23 01:40:45;;;;;;;7.950001;7.149999;;;;;;;16.61;79.75488;95865.91;;;;
2019/07/23 01:41:46;;;;;;;7.950001;7.149999;;;;;;;16.61;79.75488;95865.91;;;;
2019/07/23 01:42:48;;;;;;;7.950001;7.149999;;;;;;;16.61;79.75488;95865.91;;;;
2019/07/23 01:43:49;;;;;;;7.950001;7.149999;;;;;;;16.61;79.75488;95865.91;;;;
2019/07/23 01:44:50;;;;;;;7.950001;7.149999;;;;;;;16.61;79.75488;95865.91;;;;
2019/07/23 01:45:51;;;;;;;7.950001;7.149999;;;;;;;16.61;79.75488;95865.91;;;;
2019/07/23 01:46:53;;;;;;;7.950001;7.149999;;;;;;;16.61;79.75488;95865.91;;;;
2019/07/23 01:47:54;;;;;;;7.950001;7.149999;;;;;;;16.61;79.75488;95865.91;;;;
2019/07/23 01:48:55;;;;;;;7.950001;7.149999;;;;;;;16.61;79.75488;95865.91;;;;
2019/07/23 01:49:56;;;;;;;7.950001;7.149999;;;;;;;16.61;79.75488;95865.91;;;;
2019/07/23 01:50:57;;;;;;;7.699999;7;;;;;;;16.51;80.5498;95863.11;;;;
2019/07/23 01:51:59;;;;;;;7.699999;7;;;;;;;16.51;80.5498;95863.11;;;;
2019/07/23 01:53:00;;;;;;;7.699999;7;;;;;;;16.51;80.5498;95863.11;;;;
2019/07/23 01:54:01;;;;;;;7.699999;7;;;;;;;16.51;80.5498;95863.11;;;;
2019/07/23 01:55:03;;;;;;;7.699999;7;;;;;;;16.51;80.5498;95863.11;;;;
2019/07/23 01:56:04;;;;;;;7.699999;7;;;;;;;16.51;80.5498;95863.11;;;;
2019/07/23 01:57:06;;;;;;;7.699999;7;;;;;;;16.51;80.5498;95863.11;;;;
2019/07/23 01:58:07;;;;;;;7.699999;7;;;;;;;16.51;80.5498;95863.11;;;;
2019/07/23 01:59:08;;;;;;;7.699999;7;;;;;;;16.51;80.5498;95863.11;;;;
2019/07/23 02:00:09;;;;;;;7.699999;7;;;;;;;16.51;80.5498;95863.11;;;;
2019/07/23 02:01:11;;;;;;;7.550001;6.95;;;;;;;16.36;81.45313;95853.38;;;;
2019/07/23 02:02:13;;;;;;;7.550001;6.95;;;;;;;16.36;81.45313;95853.38;;;;
2019/07/23 02:03:14;;;;;;;7.550001;6.95;;;;;;;16.36;81.45313;95853.38;;;;
2019/07/23 02:04:15;;;;;;;7.550001;6.95;;;;;;;16.36;81.45313;95853.38;;;;
2019/07/23 02:05:16;;;;;;;7.550001;6.95;;;;;;;16.36;81.45313;95853.38;;;;
2019/07/23 02:06:24;;;;;;;7.550001;6.95;;;;;;;16.36;81.45313;95853.38;;;;
2019/07/23 02:07:26;;;;;;;7.550001;6.95;;;;;;;16.36;81.45313;95853.38;;;;
2019/07/23 02:08:27;;;;;;;7.550001;6.95;;;;;;;16.36;81.45313;95853.38;;;;
2019/07/23 02:09:29;;;;;;;7.550001;6.95;;;;;;;16.36;81.45313;95853.38;;;;
2019/07/23 02:10:30;;;;;;;7.550001;6.95;;;;;;;16.36;81.45313;95853.38;;;;
2019/07/23 02:11:33;;;;;;;7.550001;6.95;;;;;;;16.36;81.45313;95853.38;;;;
2019/07/23 02:12:37;;;;;;;8.6;7.8;;;;;;;16.29;82.37012;95853.18;;;;
2019/07/23 02:13:38;;;;;;;8.6;7.8;;;;;;;16.29;82.37012;95853.18;;;;
2019/07/23 02:14:40;;;;;;;8.6;7.8;;;;;;;16.29;82.37012;95853.18;;;;
2019/07/23 02:15:41;;;;;;;8.6;7.8;;;;;;;16.29;82.37012;95853.18;;;;
2019/07/23 02:16:42;;;;;;;8.6;7.8;;;;;;;16.29;82.37012;95853.18;;;;
2019/07/23 02:17:43;;;;;;;8.6;7.8;;;;;;;16.29;82.37012;95853.18;;;;
2019/07/23 02:18:45;;;;;;;8.6;7.8;;;;;;;16.29;82.37012;95853.18;;;;
2019/07/23 02:19:46;;;;;;;8.6;7.8;;;;;;;16.29;82.37012;95853.18;;;;
2019/07/23 02:20:47;;;;;;;8.6;7.8;;;;;;;16.29;82.37012;95853.18;;;;
2019/07/23 02:21:48;;;;;;;8.6;7.8;;;;;;;16.29;82.37012;95853.18;;;;
2019/07/23 02:22:49;;;;;;;8.049999;7.25;;;;;;;16.18;82.96484;95845.56;;;;
2019/07/23 02:23:51;;;;;;;8.049999;7.25;;;;;;;16.18;82.96484;95845.56;;;;
2019/07/23 02:24:52;;;;;;;8.049999;7.25;;;;;;;16.18;82.96484;95845.56;;;;
2019/07/23 02:25:53;;;;;;;8.049999;7.25;;;;;;;16.18;82.96484;95845.56;;;;
2019/07/23 02:26:54;;;;;;;8.049999;7.25;;;;;;;16.18;82.96484;95845.56;;;;
2019/07/23 02:27:55;;;;;;;8.049999;7.25;;;;;;;16.18;82.96484;95845.56;;;;
2019/07/23 02:28:56;;;;;;;8.049999;7.25;;;;;;;16.18;82.96484;95845.56;;;;
2019/07/23 02:29:58;;;;;;;8.049999;7.25;;;;;;;16.18;82.96484;95845.56;;;;
2019/07/23 02:30:59;;;;;;;8.049999;7.25;;;;;;;16.18;82.96484;95845.56;;;;
2019/07/23 02:32:00;;;;;;;8.049999;7.25;;;;;;;16.18;82.96484;95845.56;;;;
2019/07/23 02:33:01;;;;;;;8.249999;7.45;;;;;;;16.11;83.64453;95842.64;;;;
2019/07/23 02:34:03;;;;;;;8.249999;7.45;;;;;;;16.11;83.64453;95842.64;;;;
2019/07/23 02:35:04;;;;;;;8.249999;7.45;;;;;;;16.11;83.64453;95842.64;;;;
2019/07/23 02:36:07;;;;;;;8.249999;7.45;;;;;;;16.11;83.64453;95842.64;;;;
2019/07/23 02:37:09;;;;;;;8.249999;7.45;;;;;;;16.11;83.64453;95842.64;;;;
2019/07/23 02:38:10;;;;;;;8.249999;7.45;;;;;;;16.11;83.64453;95842.64;;;;
2019/07/23 02:39:11;;;;;;;8.249999;7.45;;;;;;;16.11;83.64453;95842.64;;;;
2019/07/23 02:40:12;;;;;;;8.249999;7.45;;;;;;;16.11;83.64453;95842.64;;;;
2019/07/23 02:41:15;;;;;;;8.249999;7.45;;;;;;;16.11;83.64453;95842.64;;;;
2019/07/23 02:42:16;;;;;;;8.249999;7.45;;;;;;;16.11;83.64453;95842.64;;;;
2019/07/23 02:43:17;;;;;;;8.249999;7.45;;;;;;;16.11;83.64453;95842.64;;;;
2019/07/23 02:44:18;;;;;;;8.349999;7.55;;;;;;;15.96;84.2334;95835.12;;;;
2019/07/23 02:45:19;;;;;;;8.349999;7.55;;;;;;;15.96;84.2334;95835.12;;;;
2019/07/23 02:46:27;;;;;;;8.349999;7.55;;;;;;;15.96;84.2334;95835.12;;;;
2019/07/23 02:47:29;;;;;;;8.349999;7.55;;;;;;;15.96;84.2334;95835.12;;;;
2019/07/23 02:48:30;;;;;;;8.349999;7.55;;;;;;;15.96;84.2334;95835.12;;;;
2019/07/23 02:49:31;;;;;;;8.349999;7.55;;;;;;;15.96;84.2334;95835.12;;;;
2019/07/23 02:50:32;;;;;;;8.349999;7.55;;;;;;;15.96;84.2334;95835.12;;;;
2019/07/23 02:51:33;;;;;;;8.349999;7.55;;;;;;;15.96;84.2334;95835.12;;;;
2019/07/23 02:52:34;;;;;;;8.349999;7.55;;;;;;;15.96;84.2334;95835.12;;;;
2019/07/23 02:53:36;;;;;;;8.349999;7.55;;;;;;;15.96;84.2334;95835.12;;;;
2019/07/23 02:54:37;;;;;;;8.450001;7.65;;;;;;;15.9;85.07422;95837.49;;;;
2019/07/23 02:55:38;;;;;;;8.450001;7.65;;;;;;;15.9;85.07422;95837.49;;;;
2019/07/23 02:56:39;;;;;;;8.450001;7.65;;;;;;;15.9;85.07422;95837.49;;;;
2019/07/23 02:57:40;;;;;;;8.450001;7.65;;;;;;;15.9;85.07422;95837.49;;;;
2019/07/23 02:58:41;;;;;;;8.450001;7.65;;;;;;;15.9;85.07422;95837.49;;;;
2019/07/23 02:59:42;;;;;;;8.450001;7.65;;;;;;;15.9;85.07422;95837.49;;;;
2019/07/23 03:00:43;;;;;;;8.450001;7.65;;;;;;;15.9;85.07422;95837.49;;;;
2019/07/23 03:01:44;;;;;;;8.450001;7.65;;;;;;;15.9;85.07422;95837.49;;;;
2019/07/23 03:02:45;;;;;;;8.450001;7.65;;;;;;;15.9;85.07422;95837.49;;;;
2019/07/23 03:03:47;;;;;;;8.450001;7.65;;;;;;;15.9;85.07422;95837.49;;;;
2019/07/23 03:04:48;;;;;;;8.9;8.1;;;;;;;15.79;85.71094;95827.7;;;;
2019/07/23 03:05:49;;;;;;;8.9;8.1;;;;;;;15.79;85.71094;95827.7;;;;
2019/07/23 03:06:50;;;;;;;8.9;8.1;;;;;;;15.79;85.71094;95827.7;;;;
2019/07/23 03:07:51;;;;;;;8.9;8.1;;;;;;;15.79;85.71094;95827.7;;;;
2019/07/23 03:08:53;;;;;;;8.9;8.1;;;;;;;15.79;85.71094;95827.7;;;;
2019/07/23 03:09:54;;;;;;;8.9;8.1;;;;;;;15.79;85.71094;95827.7;;;;
2019/07/23 03:10:55;;;;;;;8.9;8.1;;;;;;;15.79;85.71094;95827.7;;;;
2019/07/23 03:11:56;;;;;;;8.9;8.1;;;;;;;15.79;85.71094;95827.7;;;;
2019/07/23 03:12:57;;;;;;;8.9;8.1;;;;;;;15.79;85.71094;95827.7;;;;
2019/07/23 03:13:58;;;;;;;8.9;8.1;;;;;;;15.79;85.71094;95827.7;;;;
2019/07/23 03:14:59;;;;;;;8.9;8.1;;;;;;;15.79;85.71094;95827.7;;;;
2019/07/23 03:16:00;;;;;;;8.7;7.900001;;;;;;;15.72;86.52832;95837.03;;;;
2019/07/23 03:17:01;;;;;;;8.7;7.900001;;;;;;;15.72;86.52832;95837.03;;;;
2019/07/23 03:18:02;;;;;;;8.7;7.900001;;;;;;;15.72;86.52832;95837.03;;;;
2019/07/23 03:19:04;;;;;;;8.7;7.900001;;;;;;;15.72;86.52832;95837.03;;;;
2019/07/23 03:20:05;;;;;;;8.7;7.900001;;;;;;;15.72;86.52832;95837.03;;;;
2019/07/23 03:21:07;;;;;;;8.7;7.900001;;;;;;;15.72;86.52832;95837.03;;;;
2019/07/23 03:22:08;;;;;;;8.7;7.900001;;;;;;;15.72;86.52832;95837.03;;;;
2019/07/23 03:23:09;;;;;;;8.7;7.900001;;;;;;;15.72;86.52832;95837.03;;;;
2019/07/23 03:24:10;;;;;;;8.7;7.900001;;;;;;;15.72;86.52832;95837.03;;;;
2019/07/23 03:25:11;;;;;;;8.7;7.900001;;;;;;;15.72;86.52832;95837.03;;;;
2019/07/23 03:26:14;;;;;;;9.700001;8.799999;;;;;;;15.6;87.15332;95835.78;;;;
2019/07/23 03:27:15;;;;;;;9.700001;8.799999;;;;;;;15.6;87.15332;95835.78;;;;
2019/07/23 03:28:16;;;;;;;9.700001;8.799999;;;;;;;15.6;87.15332;95835.78;;;;
2019/07/23 03:29:17;;;;;;;9.700001;8.799999;;;;;;;15.6;87.15332;95835.78;;;;
2019/07/23 03:30:18;;;;;;;9.700001;8.799999;;;;;;;15.6;87.15332;95835.78;;;;
2019/07/23 03:31:21;;;;;;;9.700001;8.799999;;;;;;;15.6;87.15332;95835.78;;;;
2019/07/23 03:32:22;;;;;;;9.700001;8.799999;;;;;;;15.6;87.15332;95835.78;;;;
2019/07/23 03:33:23;;;;;;;9.700001;8.799999;;;;;;;15.6;87.15332;95835.78;;;;
2019/07/23 03:34:24;;;;;;;9.700001;8.799999;;;;;;;15.6;87.15332;95835.78;;;;
2019/07/23 03:35:25;;;;;;;9.700001;8.799999;;;;;;;15.6;87.15332;95835.78;;;;
2019/07/23 03:36:26;;;;;;;10;9.099999;;;;;;;15.59;88.10938;95845.56;;;;
2019/07/23 03:37:27;;;;;;;10;9.099999;;;;;;;15.59;88.10938;95845.56;;;;
2019/07/23 03:38:28;;;;;;;10;9.099999;;;;;;;15.59;88.10938;95845.56;;;;
2019/07/23 03:39:30;;;;;;;10;9.099999;;;;;;;15.59;88.10938;95845.56;;;;
2019/07/23 03:40:31;;;;;;;10;9.099999;;;;;;;15.59;88.10938;95845.56;;;;
2019/07/23 03:41:32;;;;;;;10;9.099999;;;;;;;15.59;88.10938;95845.56;;;;
2019/07/23 03:42:33;;;;;;;10;9.099999;;;;;;;15.59;88.10938;95845.56;;;;
2019/07/23 03:43:34;;;;;;;10;9.099999;;;;;;;15.59;88.10938;95845.56;;;;
2019/07/23 03:44:35;;;;;;;10;9.099999;;;;;;;15.59;88.10938;95845.56;;;;
2019/07/23 03:45:36;;;;;;;10;9.099999;;;;;;;15.59;88.10938;95845.56;;;;
2019/07/23 03:46:37;;;;;;;10;9.099999;;;;;;;15.59;88.10938;95845.56;;;;
2019/07/23 03:47:38;;;;;;;11.1;9.15;;;;;;;15.54;88.73633;95842.78;;;;
2019/07/23 03:48:39;;;;;;;11.1;9.15;;;;;;;15.54;88.73633;95842.78;;;;
2019/07/23 03:49:40;;;;;;;11.1;9.15;;;;;;;15.54;88.73633;95842.78;;;;
2019/07/23 03:50:41;;;;;;;11.1;9.15;;;;;;;15.54;88.73633;95842.78;;;;
2019/07/23 03:51:42;;;;;;;11.1;9.15;;;;;;;15.54;88.73633;95842.78;;;;
2019/07/23 03:52:44;;;;;;;11.1;9.15;;;;;;;15.54;88.73633;95842.78;;;;
2019/07/23 03:53:45;;;;;;;11.1;9.15;;;;;;;15.54;88.73633;95842.78;;;;
2019/07/23 03:54:46;;;;;;;11.1;9.15;;;;;;;15.54;88.73633;95842.78;;;;
2019/07/23 03:55:47;;;;;;;11.1;9.15;;;;;;;15.54;88.73633;95842.78;;;;
2019/07/23 03:56:48;;;;;;;11.1;9.15;;;;;;;15.54;88.73633;95842.78;;;;
2019/07/23 03:57:49;;;;;;;10.05;9.05;;;;;;;15.58;89.28418;95844.73;;;;
2019/07/23 03:58:50;;;;;;;10.05;9.05;;;;;;;15.58;89.28418;95844.73;;;;
2019/07/23 03:59:51;;;;;;;10.05;9.05;;;;;;;15.58;89.28418;95844.73;;;;
2019/07/23 04:00:52;;;;;;;10.05;9.05;;;;;;;15.58;89.28418;95844.73;;;;
2019/07/23 04:01:54;;;;;;;10.05;9.05;;;;;;;15.58;89.28418;95844.73;;;;
2019/07/23 04:02:55;;;;;;;10.05;9.05;;;;;;;15.58;89.28418;95844.73;;;;
2019/07/23 04:03:56;;;;;;;10.05;9.05;;;;;;;15.58;89.28418;95844.73;;;;
2019/07/23 04:04:57;;;;;;;10.05;9.05;;;;;;;15.58;89.28418;95844.73;;;;
2019/07/23 04:05:59;;;;;;;10.05;9.05;;;;;;;15.58;89.28418;95844.73;;;;
2019/07/23 04:07:00;;;;;;;10.05;9.05;;;;;;;15.58;89.28418;95844.73;;;;
2019/07/23 04:08:01;;;;;;;10.05;9.05;;;;;;;15.58;89.28418;95844.73;;;;
2019/07/23 04:09:02;;;;;;;10.05;9.1;;;;;;;15.61;89.70801;95846.14;;;;
2019/07/23 04:10:05;;;;;;;10.05;9.1;;;;;;;15.61;89.70801;95846.14;;;;
2019/07/23 04:11:07;;;;;;;10.05;9.1;;;;;;;15.61;89.70801;95846.14;;;;
2019/07/23 04:12:08;;;;;;;10.05;9.1;;;;;;;15.61;89.70801;95846.14;;;;
2019/07/23 04:13:09;;;;;;;10.05;9.1;;;;;;;15.61;89.70801;95846.14;;;;
2019/07/23 04:14:10;;;;;;;10.05;9.1;;;;;;;15.61;89.70801;95846.14;;;;
2019/07/23 04:15:11;;;;;;;10.05;9.1;;;;;;;15.61;89.70801;95846.14;;;;
2019/07/23 04:16:13;;;;;;;10.05;9.1;;;;;;;15.61;89.70801;95846.14;;;;
2019/07/23 04:17:14;;;;;;;10.05;9.1;;;;;;;15.61;89.70801;95846.14;;;;
2019/07/23 04:18:15;;;;;;;10.05;9.1;;;;;;;15.61;89.70801;95846.14;;;;
2019/07/23 04:19:16;;;;;;;9.950001;8.950001;;;;;;;15.79;89.98145;95856.3;;;;
2019/07/23 04:20:17;;;;;;;9.950001;8.950001;;;;;;;15.79;89.98145;95856.3;;;;
2019/07/23 04:21:19;;;;;;;9.950001;8.950001;;;;;;;15.79;89.98145;95856.3;;;;
2019/07/23 04:22:20;;;;;;;9.950001;8.950001;;;;;;;15.79;89.98145;95856.3;;;;
2019/07/23 04:23:21;;;;;;;9.950001;8.950001;;;;;;;15.79;89.98145;95856.3;;;;
2019/07/23 04:24:22;;;;;;;9.950001;8.950001;;;;;;;15.79;89.98145;95856.3;;;;
2019/07/23 04:25:23;;;;;;;9.950001;8.950001;;;;;;;15.79;89.98145;95856.3;;;;
2019/07/23 04:26:24;;;;;;;9.950001;8.950001;;;;;;;15.79;89.98145;95856.3;;;;
2019/07/23 04:27:25;;;;;;;9.950001;8.950001;;;;;;;15.79;89.98145;95856.3;;;;
2019/07/23 04:28:26;;;;;;;9.950001;8.950001;;;;;;;15.79;89.98145;95856.3;;;;
2019/07/23 04:29:27;;;;;;;9.950001;8.950001;;;;;;;15.79;89.98145;95856.3;;;;
2019/07/23 04:30:29;;;;;;;9.950001;8.950001;;;;;;;15.79;89.98145;95856.3;;;;
2019/07/23 04:31:37;;;;;;;9.950001;8.950001;;;;;;;15.79;89.98145;95856.3;;;;
2019/07/23 04:32:38;;;;;;;9.950001;8.950001;;;;;;;15.79;89.98145;95856.3;;;;
2019/07/23 04:33:39;;;;;;;9.950001;8.950001;;;;;;;15.79;89.98145;95856.3;;;;
2019/07/23 04:34:40;;;;;;;9.950001;8.950001;;;;;;;15.79;89.98145;95856.3;;;;
2019/07/23 04:35:41;;;;;;;9.950001;8.950001;;;;;;;15.79;89.98145;95856.3;;;;
2019/07/23 04:36:42;;;;;;;9.950001;8.950001;;;;;;;15.79;89.98145;95856.3;;;;
2019/07/23 04:37:44;;;;;;;9.950001;8.950001;;;;;;;15.79;89.98145;95856.3;;;;
2019/07/23 04:38:45;;;;;;;9.950001;8.950001;;;;;;;15.79;89.98145;95856.3;;;;
2019/07/23 04:39:46;;;;;;;9.950001;8.950001;;;;;;;15.79;89.98145;95856.3;;;;
2019/07/23 04:40:47;;;;;;;9.35;8.450001;;;;;;;16.17;89.85547;95847.88;;;;
2019/07/23 04:41:48;;;;;;;9.35;8.450001;;;;;;;16.17;89.85547;95847.88;;;;
2019/07/23 04:42:49;;;;;;;9.35;8.450001;;;;;;;16.17;89.85547;95847.88;;;;
2019/07/23 04:43:50;;;;;;;9.35;8.450001;;;;;;;16.17;89.85547;95847.88;;;;
2019/07/23 04:44:51;;;;;;;9.35;8.450001;;;;;;;16.17;89.85547;95847.88;;;;
2019/07/23 04:45:52;;;;;;;9.35;8.450001;;;;;;;16.17;89.85547;95847.88;;;;
2019/07/23 04:46:53;;;;;;;9.35;8.450001;;;;;;;16.17;89.85547;95847.88;;;;
2019/07/23 04:47:55;;;;;;;9.35;8.450001;;;;;;;16.17;89.85547;95847.88;;;;
2019/07/23 04:48:56;;;;;;;9.35;8.450001;;;;;;;16.17;89.85547;95847.88;;;;
2019/07/23 04:49:57;;;;;;;9.35;8.450001;;;;;;;16.17;89.85547;95847.88;;;;
2019/07/23 04:50:58;;;;;;;10.7;9.599999;;;;;;;16.38;90.11328;95850.8;;;;
2019/07/23 04:51:59;;;;;;;10.7;9.599999;;;;;;;16.38;90.11328;95850.8;;;;
2019/07/23 04:53:00;;;;;;;10.7;9.599999;;;;;;;16.38;90.11328;95850.8;;;;
2019/07/23 04:54:01;;;;;;;10.7;9.599999;;;;;;;16.38;90.11328;95850.8;;;;
2019/07/23 04:55:02;;;;;;;10.7;9.599999;;;;;;;16.38;90.11328;95850.8;;;;
2019/07/23 04:56:04;;;;;;;10.7;9.599999;;;;;;;16.38;90.11328;95850.8;;;;
2019/07/23 04:57:05;;;;;;;10.7;9.599999;;;;;;;16.38;90.11328;95850.8;;;;
2019/07/23 04:58:06;;;;;;;10.7;9.599999;;;;;;;16.38;90.11328;95850.8;;;;
2019/07/23 04:59:07;;;;;;;10.7;9.599999;;;;;;;16.38;90.11328;95850.8;;;;
2019/07/23 05:00:08;;;;;;;10.7;9.599999;;;;;;;16.38;90.11328;95850.8;;;;
2019/07/23 05:01:37;;;;;;;10.2;9.200002;;;;;;;16.73;90.42188;95854.69;;;;
2019/07/23 05:02:38;;;;;;;10.2;9.200002;;;;;;;16.73;90.42188;95854.69;;;;
2019/07/23 05:03:39;;;;;;;10.2;9.200002;;;;;;;16.73;90.42188;95854.69;;;;
2019/07/23 05:04:40;;;;;;;10.2;9.200002;;;;;;;16.73;90.42188;95854.69;;;;
2019/07/23 05:05:41;;;;;;;10.2;9.200002;;;;;;;16.73;90.42188;95854.69;;;;
2019/07/23 05:06:42;;;;;;;10.2;9.200002;;;;;;;16.73;90.42188;95854.69;;;;
2019/07/23 05:07:44;;;;;;;10.2;9.200002;;;;;;;16.73;90.42188;95854.69;;;;
2019/07/23 05:08:45;;;;;;;10.2;9.200002;;;;;;;16.73;90.42188;95854.69;;;;
2019/07/23 05:09:46;;;;;;;10.2;9.200002;;;;;;;16.73;90.42188;95854.69;;;;
2019/07/23 05:10:47;;;;;;;10.2;9.200002;;;;;;;16.73;90.42188;95854.69;;;;
2019/07/23 05:11:48;;;;;;;10.2;9.200002;;;;;;;16.73;90.42188;95854.69;;;;
2019/07/23 05:12:49;;;;;;;10.2;9.200002;;;;;;;16.73;90.42188;95854.69;;;;
2019/07/23 05:13:50;;;;;;;10.2;9.200002;;;;;;;16.73;90.42188;95854.69;;;;
2019/07/23 05:14:51;;;;;;;10.2;9.200002;;;;;;;16.73;90.42188;95854.69;;;;
2019/07/23 05:15:52;;;;;;;10.2;9.200002;;;;;;;16.73;90.42188;95854.69;;;;
2019/07/23 05:16:53;;;;;;;10.2;9.200002;;;;;;;16.73;90.42188;95854.69;;;;
2019/07/23 05:17:54;;;;;;;10.2;9.200002;;;;;;;16.73;90.42188;95854.69;;;;
2019/07/23 05:18:55;;;;;;;10.2;9.200002;;;;;;;16.73;90.42188;95854.69;;;;
2019/07/23 05:19:57;;;;;;;10.2;9.200002;;;;;;;16.73;90.42188;95854.69;;;;
2019/07/23 05:20:58;;;;;;;10.2;9.200002;;;;;;;16.73;90.42188;95854.69;;;;
2019/07/23 05:21:59;;;;;;;10.2;9.200002;;;;;;;16.73;90.42188;95854.69;;;;
2019/07/23 05:23:00;;;;;;;9.549999;8.649999;;;;;;;17.68;89.48926;95852.2;;;;
2019/07/23 05:24:01;;;;;;;9.549999;8.649999;;;;;;;17.68;89.48926;95852.2;;;;
2019/07/23 05:25:02;;;;;;;9.549999;8.649999;;;;;;;17.68;89.48926;95852.2;;;;
2019/07/23 05:26:05;;;;;;;9.549999;8.649999;;;;;;;17.68;89.48926;95852.2;;;;
2019/07/23 05:27:06;;;;;;;9.549999;8.649999;;;;;;;17.68;89.48926;95852.2;;;;
2019/07/23 05:28:07;;;;;;;9.549999;8.649999;;;;;;;17.68;89.48926;95852.2;;;;
2019/07/23 05:29:08;;;;;;;9.549999;8.649999;;;;;;;17.68;89.48926;95852.2;;;;
2019/07/23 05:30:09;;;;;;;9.549999;8.649999;;;;;;;17.68;89.48926;95852.2;;;;
2019/07/23 05:31:11;;;;;;;9.549999;8.649999;;;;;;;17.68;89.48926;95852.2;;;;
2019/07/23 05:32:12;;;;;;;9.549999;8.649999;;;;;;;17.68;89.48926;95852.2;;;;
2019/07/23 05:33:13;;;;;;;9.549999;8.649999;;;;;;;17.68;89.48926;95852.2;;;;
2019/07/23 05:34:14;;;;;;;8.95;7.9;;;;;;;18.15;89.21582;95850.74;;;;
2019/07/23 05:35:15;;;;;;;8.95;7.9;;;;;;;18.15;89.21582;95850.74;;;;
2019/07/23 05:36:18;;;;;;;8.95;7.9;;;;;;;18.15;89.21582;95850.74;;;;
2019/07/23 05:37:19;;;;;;;8.95;7.9;;;;;;;18.15;89.21582;95850.74;;;;
2019/07/23 05:38:20;;;;;;;8.95;7.9;;;;;;;18.15;89.21582;95850.74;;;;
2019/07/23 05:39:21;;;;;;;8.95;7.9;;;;;;;18.15;89.21582;95850.74;;;;